Time;durP1;ratioP1;P1;durP2;ratioP2;P2;SDS_P1;SDS_P2;PMS_P1;PMS_P2;Temp;Humidity;BMP_temperature;BMP_pressure;BME280_temperature;BME280_humidity;BME280_pressure;Samples;Min_cycle;Max_cycle;Signal;HPM_P1;HPM_P2
2021/11/13 00:01:15;;;;;;;81.85;37.47;;;;;;;3.61;86.26;99955.94;10485397;28;20046;-76
2021/11/13 00:06:16;;;;;;;80.50;37.72;;;;;;;3.47;85.60;99953.41;10484854;28;20510;-76
2021/11/13 00:11:20;;;;;;;85.25;36.60;;;;;;;3.49;86.78;99958.59;10503772;28;20382;-78
2021/11/13 00:16:21;;;;;;;76.65;36.72;;;;;;;3.47;86.61;99947.34;10484637;28;20456;-76
2021/11/13 00:21:23;;;;;;;80.65;37.05;;;;;;;3.49;86.48;99946.47;10483823;28;20041;-77
2021/11/13 00:26:24;;;;;;;74.75;38.25;;;;;;;3.54;86.43;99944.72;10483020;28;20426;-75
2021/11/13 00:31:27;;;;;;;79.30;37.60;;;;;;;3.35;86.50;99948.25;10502379;28;20040;-75
2021/11/13 00:36:29;;;;;;;76.47;36.05;;;;;;;3.55;86.62;99943.00;10501083;28;20048;-75
2021/11/13 00:41:31;;;;;;;73.68;36.45;;;;;;;3.60;86.70;99941.22;10501589;28;20074;-76
2021/11/13 00:46:33;;;;;;;76.38;37.53;;;;;;;3.41;87.52;99936.97;10500958;28;20448;-76
2021/11/13 00:51:38;;;;;;;81.40;39.08;;;;;;;3.61;86.97;99934.28;10483768;28;20036;-75
2021/11/13 00:56:40;;;;;;;76.88;37.80;;;;;;;3.65;86.38;99938.59;10482409;28;20102;-75
2021/11/13 01:01:42;;;;;;;74.55;38.28;;;;;;;3.76;86.00;99939.38;10481963;28;20056;-75
2021/11/13 01:06:44;;;;;;;71.30;35.08;;;;;;;3.91;85.52;99935.84;10499746;28;20111;-76
2021/11/13 01:11:45;;;;;;;67.32;36.30;;;;;;;3.69;86.12;99940.31;10499565;28;20055;-76
2021/11/13 01:16:47;;;;;;;76.15;39.03;;;;;;;3.54;87.29;99934.34;10465294;28;20451;-76
2021/11/13 01:21:49;;;;;;;67.60;36.67;;;;;;;3.60;86.73;99941.22;10481975;28;20048;-76
2021/11/13 01:26:51;;;;;;;76.07;38.75;;;;;;;3.44;87.29;99940.41;10480926;28;20143;-75
2021/11/13 01:31:53;;;;;;;72.35;37.35;;;;;;;3.56;87.44;99947.31;10482407;28;20391;-75
2021/11/13 01:36:54;;;;;;;72.85;38.55;;;;;;;3.64;86.42;99942.09;10482551;28;20401;-76
2021/11/13 01:41:58;;;;;;;74.70;38.90;;;;;;;3.28;88.22;99946.56;10481693;28;20051;-76
2021/11/13 01:47:00;;;;;;;79.80;39.40;;;;;;;3.17;89.25;99938.78;10498908;28;20161;-76
2021/11/13 01:52:08;;;;;;;70.65;37.95;;;;;;;3.74;87.30;99936.81;10498862;28;20385;-76
2021/11/13 01:57:12;;;;;;;66.85;36.15;;;;;;;3.58;87.26;99929.09;10499074;28;20122;-75
2021/11/13 02:02:14;;;;;;;69.70;37.63;;;;;;;3.45;87.96;99926.59;10498690;28;20052;-76
2021/11/13 02:07:16;;;;;;;64.40;34.95;;;;;;;3.26;88.91;99935.31;10480382;28;20049;-76
2021/11/13 02:12:17;;;;;;;72.25;38.55;;;;;;;3.45;88.60;99929.19;10479512;28;20045;-76
2021/11/13 02:17:19;;;;;;;61.38;35.63;;;;;;;3.32;88.71;99926.63;10497401;28;20402;-76
2021/11/13 02:22:22;;;;;;;65.18;36.75;;;;;;;3.81;86.91;99924.66;10497476;28;20044;-76
2021/11/13 02:27:24;;;;;;;67.05;36.38;;;;;;;3.61;86.49;99929.09;10480383;28;20120;-76
2021/11/13 02:32:26;;;;;;;69.85;39.10;;;;;;;3.36;87.91;99934.38;10479846;28;20449;-76
2021/11/13 02:37:28;;;;;;;66.22;36.65;;;;;;;3.16;89.15;99944.88;10478842;28;20051;-76
2021/11/13 02:42:30;;;;;;;68.82;36.13;;;;;;;3.01;89.40;99950.97;10478905;28;20049;-76
2021/11/13 02:47:33;;;;;;;72.18;38.80;;;;;;;2.78;90.24;99944.94;10481967;28;20040;-76
2021/11/13 02:52:47;;;;;;;73.15;37.97;;;;;;;2.68;90.87;99957.06;10504031;28;20101;-76
2021/11/13 02:57:50;;;;;;;75.00;37.53;;;;;;;2.61;91.17;99951.88;10505036;28;20036;-75
2021/11/13 03:02:52;;;;;;;66.60;36.15;;;;;;;2.51;91.31;99953.63;10488091;28;20044;-76
2021/11/13 03:07:55;;;;;;;69.93;35.13;;;;;;;2.49;91.05;99958.84;10485979;28;20049;-76
2021/11/13 03:12:57;;;;;;;69.90;36.45;;;;;;;2.39;91.26;99957.13;10504032;28;20044;-76
2021/11/13 03:17:59;;;;;;;71.72;35.03;;;;;;;2.15;91.33;99960.53;10503408;28;20044;-77
2021/11/13 03:23:01;;;;;;;67.18;35.22;;;;;;;2.12;91.76;99944.97;10502715;28;20335;-77
2021/11/13 03:28:05;;;;;;;66.75;33.95;;;;;;;1.94;91.66;99952.72;10485477;28;20474;-75
2021/11/13 03:33:09;;;;;;;72.00;35.17;;;;;;;1.92;91.87;99950.13;10502596;28;20040;-76
2021/11/13 03:38:17;;;;;;;68.97;36.80;;;;;;;1.93;92.03;99945.81;10484136;28;20517;-76
2021/11/13 03:43:18;;;;;;;;;;;;;;;1.88;92.00;99939.75;10485096;28;20044;-75
2021/11/13 03:48:20;;;;;;;71.15;33.67;;;;;;;1.85;91.82;99943.19;10483784;28;19928;-76
2021/11/13 03:53:21;;;;;;;68.60;34.83;;;;;;;1.70;92.53;99938.84;10483639;28;20052;-75
2021/11/13 03:58:23;;;;;;;69.82;34.42;;;;;;;1.67;93.00;99940.56;10482442;28;20040;-76
2021/11/13 04:03:25;;;;;;;72.97;35.25;;;;;;;1.80;93.26;99938.88;10483074;28;20040;-75
2021/11/13 04:08:26;;;;;;;78.93;36.70;;;;;;;1.89;93.64;99937.16;10501195;28;20097;-77
2021/11/13 04:13:28;;;;;;;77.25;35.90;;;;;;;2.00;93.29;99940.66;10501332;28;20056;-76
2021/11/13 04:18:29;;;;;;;74.55;34.53;;;;;;;2.12;92.78;99934.59;10501589;28;20219;-76
2021/11/13 04:23:32;;;;;;;71.07;33.35;;;;;;;2.16;92.93;99940.66;10483510;28;20053;-75
2021/11/13 04:28:34;;;;;;;71.32;35.15;;;;;;;2.17;92.86;99932.00;10501068;28;20045;-75
2021/11/13 04:33:35;;;;;;;71.13;34.95;;;;;;;2.20;93.28;99935.47;10500666;28;20043;-75
2021/11/13 04:38:37;;;;;;;63.33;32.10;;;;;;;2.36;92.73;99940.69;10482764;28;20486;-76
2021/11/13 04:43:39;;;;;;;71.68;35.25;;;;;;;2.54;92.44;99945.84;10499577;28;20040;-75
2021/11/13 04:48:40;;;;;;;59.28;31.55;;;;;;;2.47;91.65;99944.13;10500218;28;20049;-75
2021/11/13 04:53:42;;;;;;;59.97;31.52;;;;;;;2.46;91.11;99943.25;10482130;28;20040;-75
2021/11/13 04:58:44;;;;;;;63.25;32.65;;;;;;;2.45;91.57;99941.53;10502139;28;20040;-76
2021/11/13 05:03:45;;;;;;;59.22;31.00;;;;;;;2.37;91.71;99938.06;10499408;28;20413;-76
2021/11/13 05:08:47;;;;;;;54.95;30.88;;;;;;;2.53;91.92;99932.03;10499457;28;20074;-75
2021/11/13 05:13:49;;;;;;;55.90;31.83;;;;;;;2.82;90.85;99919.84;10499221;28;20052;-76
2021/11/13 05:18:50;;;;;;;58.88;32.95;;;;;;;3.10;89.60;99918.03;10480794;28;20044;-75
2021/11/13 05:23:52;;;;;;;53.75;31.55;;;;;;;2.86;89.64;99922.44;10480550;28;20165;-75
2021/11/13 05:28:53;;;;;;;59.28;32.28;;;;;;;3.06;89.54;99925.00;10480523;28;20098;-75
2021/11/13 05:33:55;;;;;;;49.22;30.67;;;;;;;3.23;88.95;99906.72;10498686;28;20052;-76
2021/11/13 05:38:56;;;;;;;54.25;31.00;;;;;;;3.16;89.39;99923.22;10499431;28;20041;-76
2021/11/13 05:43:58;;;;;;;56.20;31.77;;;;;;;3.34;88.50;99912.75;10499239;28;20098;-73
2021/11/13 05:49:06;;;;;;;45.00;29.55;;;;;;;3.41;87.87;99919.66;10500725;28;20032;-73
2021/11/13 05:54:08;;;;;;;48.92;30.30;;;;;;;3.50;88.45;99918.75;10498903;28;20105;-73
2021/11/13 05:59:10;;;;;;;51.88;30.02;;;;;;;3.50;87.42;99911.81;10499117;28;20049;-73
2021/11/13 06:04:15;;;;;;;44.70;28.63;;;;;;;3.78;86.46;99919.47;10481704;28;20032;-73
2021/11/13 06:09:33;;;;;;;41.83;27.77;;;;;;;3.68;86.72;99915.19;10483421;28;20072;-73
2021/11/13 06:14:35;;;;;;;34.38;26.00;;;;;;;3.93;85.65;99900.28;10480451;28;20045;-73
2021/11/13 06:19:37;;;;;;;33.03;25.00;;;;;;;3.97;84.86;99905.47;10480485;28;20044;-73
2021/11/13 06:24:38;;;;;;;26.88;23.17;;;;;;;4.06;84.12;99912.34;10488096;28;20044;-73
2021/11/13 06:29:40;;;;;;;23.92;20.88;;;;;;;4.04;84.66;99912.34;10506875;28;20079;-73
2021/11/13 06:34:42;;;;;;;22.85;20.50;;;;;;;4.14;84.17;99925.28;10488121;28;20048;-73
2021/11/13 06:39:44;;;;;;;23.70;20.55;;;;;;;4.11;83.56;99917.50;10505516;28;20044;-73
2021/11/13 06:44:46;;;;;;;20.67;18.77;;;;;;;4.35;82.44;99924.25;10505739;28;20066;-73
2021/11/13 06:49:48;;;;;;;20.77;18.73;;;;;;;4.39;82.17;99926.84;10504961;28;20044;-73
2021/11/13 06:54:49;;;;;;;19.13;17.33;;;;;;;4.11;83.89;99928.75;10487704;28;20056;-73
2021/11/13 06:59:51;;;;;;;19.38;17.38;;;;;;;4.18;83.46;99929.59;10487529;28;20049;-73
2021/11/13 07:04:53;;;;;;;19.05;16.92;;;;;;;4.29;83.06;99919.94;10504220;28;20044;-73
2021/11/13 07:09:54;;;;;;;17.65;16.08;;;;;;;4.51;81.65;99937.09;10505417;28;20045;-73
2021/11/13 07:14:56;;;;;;;17.08;15.48;;;;;;;4.43;82.17;99940.69;10504586;28;20076;-75
2021/11/13 07:19:58;;;;;;;16.55;15.15;;;;;;;4.40;82.60;99946.75;10487230;28;20040;-74
2021/11/13 07:25:00;;;;;;;16.35;14.90;;;;;;;4.71;81.18;99944.75;10486124;28;20098;-74
2021/11/13 07:30:03;;;;;;;16.05;14.63;;;;;;;4.76;81.18;99942.97;10505860;28;20068;-73
2021/11/13 07:35:06;;;;;;;15.43;14.02;;;;;;;4.68;81.95;99957.78;10486239;28;20037;-74
2021/11/13 07:40:08;;;;;;;15.02;13.63;;;;;;;5.00;80.30;99956.63;10504124;28;20040;-73
2021/11/13 07:45:10;;;;;;;16.02;14.52;;;;;;;5.11;79.43;99966.94;10486135;28;20384;-75
2021/11/13 07:50:14;;;;;;;16.08;14.35;;;;;;;4.95;80.56;99966.22;10503316;28;20453;-74
2021/11/13 07:55:17;;;;;;;16.10;14.50;;;;;;;5.16;79.05;99963.41;10503586;28;20053;-74
2021/11/13 08:00:22;;;;;;;15.35;14.07;;;;;;;5.51;77.73;99959.53;10505176;28;20486;-74
2021/11/13 08:05:24;;;;;;;17.77;15.80;;;;;;;5.41;78.55;99974.41;10504753;28;20081;-74
2021/11/13 08:10:26;;;;;;;17.50;15.75;;;;;;;5.53;77.92;99969.06;10503162;28;20049;-74
2021/11/13 08:15:27;;;;;;;18.52;16.52;;;;;;;5.70;76.71;99976.66;10503094;28;20060;-74
2021/11/13 08:20:31;;;;;;;16.73;15.07;;;;;;;5.57;77.97;99980.28;10484232;28;20048;-74
2021/11/13 08:25:33;;;;;;;16.80;15.10;;;;;;;5.97;75.77;99975.44;10485228;28;20098;-73
2021/11/13 08:30:36;;;;;;;16.13;14.68;;;;;;;5.90;76.18;99979.00;10484380;28;20036;-73
2021/11/13 08:35:40;;;;;;;16.15;14.60;;;;;;;6.07;75.56;99976.22;10502220;28;20201;-75
2021/11/13 08:40:42;;;;;;;16.70;15.10;;;;;;;6.14;75.18;99983.03;10501189;28;20037;-74
2021/11/13 08:45:48;;;;;;;15.77;14.27;;;;;;;6.46;73.03;99986.91;10501920;28;20048;-75
2021/11/13 08:50:50;;;;;;;15.70;14.30;;;;;;;6.51;73.30;99990.34;10501713;28;20040;-74
2021/11/13 08:55:52;;;;;;;15.73;14.43;;;;;;;6.69;72.83;99992.66;10501331;28;20060;-74
2021/11/13 09:01:00;;;;;;;17.67;16.05;;;;;;;6.68;73.16;99992.66;10482890;28;20040;-74
2021/11/13 09:06:08;;;;;;;16.25;14.75;;;;;;;6.73;72.98;99994.31;10484082;28;20048;-74
2021/11/13 09:11:13;;;;;;;16.33;14.52;;;;;;;7.08;71.75;99998.94;10466313;28;20044;-74
2021/11/13 09:16:15;;;;;;;15.00;13.57;;;;;;;7.22;71.21;99995.22;10501867;28;20440;-74
2021/11/13 09:21:19;;;;;;;16.00;14.45;;;;;;;7.06;71.13;100003.31;10501142;28;20040;-74
2021/11/13 09:26:22;;;;;;;15.80;14.50;;;;;;;6.92;72.79;100010.53;10465635;28;20052;-74
2021/11/13 09:31:24;;;;;;;15.95;14.60;;;;;;;6.92;72.58;100010.53;10500367;28;20490;-74
2021/11/13 09:36:26;;;;;;;16.20;14.80;;;;;;;6.66;73.25;100005.75;10501587;28;20047;-74
2021/11/13 09:41:27;;;;;;;16.35;14.95;;;;;;;6.55;74.12;99998.09;10501256;28;20103;-74
2021/11/13 09:46:29;;;;;;;16.98;15.38;;;;;;;6.57;74.82;99998.06;10465166;28;20489;-74
2021/11/13 09:51:32;;;;;;;16.73;15.23;;;;;;;7.10;72.32;99995.44;10500119;28;20040;-74
2021/11/13 09:56:37;;;;;;;16.00;14.60;;;;;;;6.95;72.68;99994.81;10483925;28;20044;-75
2021/11/13 10:01:39;;;;;;;17.52;16.05;;;;;;;6.88;74.06;100000.16;10491769;28;20049;-73
2021/11/13 10:06:41;;;;;;;16.88;15.38;;;;;;;7.06;73.62;99990.25;10508642;28;20071;-74
2021/11/13 10:11:48;;;;;;;16.55;15.05;;;;;;;6.86;74.15;99988.88;10508431;28;20540;-74
2021/11/13 10:16:51;;;;;;;14.48;13.25;;;;;;;6.92;73.48;99989.63;10490059;28;20071;-74
2021/11/13 10:21:56;;;;;;;16.48;14.88;;;;;;;6.86;73.92;99994.94;10490711;28;20494;-74
2021/11/13 10:27:04;;;;;;;15.13;13.82;;;;;;;6.91;73.80;99987.91;10507177;28;20047;-74
2021/11/13 10:32:09;;;;;;;14.88;13.63;;;;;;;7.17;73.18;99987.44;10489749;28;20048;-74
2021/11/13 10:37:22;;;;;;;14.60;13.35;;;;;;;7.32;72.06;99979.31;10507075;28;20128;-74
2021/11/13 10:42:28;;;;;;;12.82;11.57;;;;;;;7.38;72.18;99967.84;10505296;28;20532;-73
2021/11/13 10:47:34;;;;;;;15.43;12.88;;;;;;;7.35;71.83;99965.31;10488318;28;20052;-74
2021/11/13 10:52:35;;;;;;;14.57;13.15;;;;;;;7.44;71.59;99952.06;10509512;28;20048;-74
2021/11/13 10:57:37;;;;;;;12.63;11.45;;;;;;;7.62;70.71;99955.19;10495473;28;20040;-74
2021/11/13 11:02:39;;;;;;;12.48;11.48;;;;;;;7.55;71.92;99951.81;10507154;28;20036;-73
2021/11/13 11:07:41;;;;;;;12.77;11.68;;;;;;;7.64;72.03;99940.31;10505527;28;20124;-73
2021/11/13 11:12:46;;;;;;;12.63;11.52;;;;;;;8.16;69.98;99940.00;10487329;28;20048;-74
2021/11/13 11:17:56;;;;;;;12.30;11.30;;;;;;;8.38;69.27;99929.06;10472524;28;20040;-74
2021/11/13 11:22:57;;;;;;;11.95;10.93;;;;;;;8.45;68.66;99923.59;10487344;28;20135;-74
2021/11/13 11:27:59;;;;;;;12.52;11.43;;;;;;;8.53;68.46;99928.66;10486695;28;20051;-73
2021/11/13 11:33:09;;;;;;;12.90;11.80;;;;;;;8.82;66.83;99922.69;10505941;28;20044;-75
2021/11/13 11:38:12;;;;;;;13.65;12.43;;;;;;;8.51;68.43;99904.28;10506353;28;20047;-75
2021/11/13 11:43:15;;;;;;;12.98;11.73;;;;;;;8.61;68.57;99912.75;10497023;22;20088;-73
2021/11/13 11:48:17;;;;;;;13.95;12.75;;;;;;;8.50;68.62;99910.41;10460311;28;20041;-72
2021/11/13 11:53:19;;;;;;;14.48;13.38;;;;;;;8.47;68.88;99913.97;10461279;28;20102;-72
2021/11/13 11:58:21;;;;;;;15.18;13.57;;;;;;;8.32;69.82;99919.53;10443232;28;20041;-72
2021/11/13 12:03:35;;;;;;;14.35;13.15;;;;;;;8.33;69.90;99916.03;10442574;28;20055;-72
2021/11/13 12:08:38;;;;;;;14.48;13.27;;;;;;;8.43;69.88;99912.31;10460214;28;20076;-72
2021/11/13 12:13:40;;;;;;;15.38;14.00;;;;;;;8.45;69.68;99913.13;10459822;28;20429;-72
2021/11/13 12:18:45;;;;;;;15.27;13.98;;;;;;;8.64;67.84;99921.41;10457438;28;20052;-72
2021/11/13 12:23:51;;;;;;;15.18;13.80;;;;;;;8.63;69.06;99914.41;10459233;28;20077;-72
2021/11/13 12:28:55;;;;;;;16.35;14.95;;;;;;;8.27;70.34;99918.78;10441249;28;20045;-72
2021/11/13 12:33:57;;;;;;;16.30;14.98;;;;;;;8.23;70.28;99919.75;10458953;28;20053;-72
2021/11/13 12:39:03;;;;;;;17.17;15.57;;;;;;;8.25;69.28;99928.47;10459368;28;20033;-72
2021/11/13 12:44:25;;;;;;;17.15;15.57;;;;;;;8.03;70.15;99918.50;10459351;28;20055;-73
2021/11/13 12:49:48;;;;;;;16.00;14.70;;;;;;;7.99;70.80;99922.06;10440797;28;20060;-73
2021/11/13 12:54:50;;;;;;;18.27;16.75;;;;;;;7.92;71.17;99920.47;10440063;28;20045;-72
2021/11/13 13:00:24;;;;;;;18.70;16.95;;;;;;;7.91;71.43;99920.53;10440460;28;20505;-72
2021/11/13 13:05:44;;;;;;;19.30;17.65;;;;;;;7.90;70.68;99931.91;10458601;28;20390;-72
2021/11/13 13:10:47;;;;;;;18.88;17.25;;;;;;;7.95;71.64;99932.66;10424591;28;20053;-74
2021/11/13 13:15:58;;;;;;;19.92;18.15;;;;;;;8.11;70.22;99930.56;10458542;28;20057;-72
2021/11/13 13:21:00;;;;;;;20.25;18.52;;;;;;;8.06;70.22;99923.66;10458670;28;20087;-73
2021/11/13 13:26:05;;;;;;;19.20;17.42;;;;;;;7.81;71.16;99933.81;10457930;28;20048;-72
2021/11/13 13:31:11;;;;;;;20.20;18.48;;;;;;;7.67;72.21;99935.88;10457848;28;20045;-73
2021/11/13 13:36:31;;;;;;;19.42;17.83;;;;;;;7.77;71.62;99940.00;10458684;28;20442;-73
2021/11/13 13:41:33;;;;;;;17.50;15.88;;;;;;;7.68;71.68;99932.34;10439987;28;20051;-72
2021/11/13 13:46:42;;;;;;;19.27;17.55;;;;;;;7.87;71.61;99932.81;10458642;28;20041;-71
2021/11/13 13:51:50;;;;;;;18.20;16.80;;;;;;;7.77;71.14;99939.16;10457488;28;20098;-73
2021/11/13 13:56:53;;;;;;;18.02;16.38;;;;;;;7.79;71.02;99935.63;10457528;28;20132;-73
2021/11/13 14:01:57;;;;;;;18.90;17.40;;;;;;;7.87;70.54;99929.34;10456352;28;20106;-73
2021/11/13 14:07:10;;;;;;;18.50;17.00;;;;;;;7.67;71.18;99940.25;10422560;28;20040;-74
2021/11/13 14:12:12;;;;;;;20.65;18.50;;;;;;;7.48;72.57;99931.91;10456591;28;20041;-73
2021/11/13 14:17:19;;;;;;;20.85;19.05;;;;;;;7.62;72.05;99931.66;10438982;28;20099;-73
2021/11/13 14:22:21;;;;;;;21.80;19.77;;;;;;;7.34;72.70;99924.34;10438935;28;20037;-73
2021/11/13 14:27:22;;;;;;;20.85;19.05;;;;;;;7.33;72.91;99926.09;10437978;28;20095;-72
2021/11/13 14:32:24;;;;;;;21.27;19.40;;;;;;;7.41;72.49;99933.81;10438398;28;20135;-73
2021/11/13 14:37:31;;;;;;;21.58;19.38;;;;;;;7.23;72.95;99927.19;10438094;28;20068;-73
2021/11/13 14:42:36;;;;;;;23.67;21.05;;;;;;;7.24;72.85;99938.50;10457398;28;20048;-72
2021/11/13 14:47:41;;;;;;;22.58;20.50;;;;;;;7.24;73.20;99936.75;10463831;28;20079;-73
2021/11/13 14:52:52;;;;;;;20.80;18.70;;;;;;;7.07;73.51;99929.22;10464470;28;20053;-73
2021/11/13 14:58:00;;;;;;;21.23;19.40;;;;;;;6.94;74.17;99942.56;10445736;28;20037;-73
2021/11/13 15:03:10;;;;;;;20.55;18.73;;;;;;;7.05;74.09;99944.09;10444984;28;20143;-73
2021/11/13 15:08:31;;;;;;;20.75;19.05;;;;;;;6.67;75.82;99967.44;10463967;28;20044;-72
2021/11/13 15:13:39;;;;;;;22.33;20.40;;;;;;;6.88;75.22;99955.75;10462338;28;20049;-72
2021/11/13 15:18:43;;;;;;;25.15;22.55;;;;;;;7.16;74.38;99953.47;10462739;28;20041;-72
2021/11/13 15:23:45;;;;;;;30.88;26.85;;;;;;;7.03;74.27;99965.91;10462177;28;20052;-71
2021/11/13 15:28:47;;;;;;;24.67;22.38;;;;;;;6.88;74.97;99969.66;10461647;28;20047;-71
2021/11/13 15:33:48;;;;;;;24.90;22.60;;;;;;;6.85;75.19;99984.53;10462433;28;20053;-71
2021/11/13 15:38:50;;;;;;;26.58;23.83;;;;;;;6.61;75.93;99973.63;10461307;28;20041;-71
2021/11/13 15:43:59;;;;;;;25.73;23.17;;;;;;;6.54;76.02;99978.06;10460973;28;20041;-71
2021/11/13 15:49:04;;;;;;;24.23;21.83;;;;;;;6.53;76.42;99983.31;10461511;28;20402;-71
2021/11/13 15:54:10;;;;;;;27.05;24.50;;;;;;;6.44;76.36;99981.72;10459437;28;20434;-71
2021/11/13 15:59:16;;;;;;;26.60;24.10;;;;;;;6.45;76.72;99980.81;10460225;28;20072;-72
2021/11/13 16:04:19;;;;;;;28.80;24.83;;;;;;;6.51;75.95;99987.72;10459549;28;20482;-72
2021/11/13 16:09:23;;;;;;;28.27;24.70;;;;;;;6.53;75.72;99994.63;10459836;28;20047;-73
2021/11/13 16:14:25;;;;;;;31.92;26.17;;;;;;;6.45;76.00;100003.47;10459391;28;20136;-72
2021/11/13 16:19:27;;;;;;;29.85;26.75;;;;;;;6.18;76.99;100015.19;10459081;28;20056;-72
2021/11/13 16:24:29;;;;;;;33.10;26.50;;;;;;;6.16;77.94;100016.97;10441488;28;20091;-70
2021/11/13 16:29:31;;;;;;;38.72;28.67;;;;;;;6.15;77.69;100023.91;10460147;28;20453;-71
2021/11/13 16:34:32;;;;;;;39.10;29.75;;;;;;;6.06;78.16;100016.22;10458994;28;20116;-71
2021/11/13 16:39:34;;;;;;;40.55;29.50;;;;;;;6.24;77.01;100029.03;10458249;28;20633;-72
2021/11/13 16:44:37;;;;;;;31.73;27.55;;;;;;;6.17;77.36;100029.13;10455033;28;20131;-70
2021/11/13 16:49:39;;;;;;;36.30;29.17;;;;;;;6.14;77.26;100037.84;10437025;28;20044;-71
2021/11/13 16:54:40;;;;;;;39.10;29.02;;;;;;;5.90;78.89;100046.84;10456024;28;20048;-71
2021/11/13 16:59:42;;;;;;;37.60;30.58;;;;;;;5.89;79.47;100045.13;10458606;28;20047;-72
2021/11/13 17:04:44;;;;;;;34.15;28.42;;;;;;;5.69;80.75;100037.53;10440310;28;20076;-73
2021/11/13 17:09:47;;;;;;;36.95;27.42;;;;;;;6.00;79.22;100045.00;10458031;28;20083;-73
2021/11/13 17:14:51;;;;;;;36.58;29.10;;;;;;;5.79;80.11;100053.91;10460281;28;20055;-73
2021/11/13 17:19:53;;;;;;;35.05;29.55;;;;;;;5.77;80.02;100060.91;10439035;28;20040;-73
2021/11/13 17:24:55;;;;;;;43.15;31.73;;;;;;;5.67;80.79;100059.31;10457791;28;20045;-73
2021/11/13 17:29:56;;;;;;;39.10;32.03;;;;;;;5.75;80.24;100063.53;10458525;28;20056;-73
2021/11/13 17:34:58;;;;;;;48.38;34.53;;;;;;;5.56;80.75;100062.00;10459930;28;20102;-73
2021/11/13 17:40:01;;;;;;;54.47;35.22;;;;;;;5.75;79.80;100065.28;10457161;28;20072;-73
2021/11/13 17:45:05;;;;;;;51.05;36.13;;;;;;;5.65;79.93;100071.47;10456614;28;20049;-73
2021/11/13 17:50:09;;;;;;;53.67;36.95;;;;;;;5.79;79.71;100075.66;10440803;22;20049;-76
2021/11/13 17:55:11;;;;;;;51.58;36.78;;;;;;;5.72;80.49;100078.38;10403660;28;20045;-76
2021/11/13 18:00:21;;;;;;;55.67;36.30;;;;;;;5.88;79.18;100081.66;10417510;28;20052;-76
2021/11/13 18:05:25;;;;;;;62.88;38.30;;;;;;;5.53;80.65;100081.19;10421141;28;20458;-76
2021/11/13 18:10:31;;;;;;;55.42;36.88;;;;;;;5.60;80.25;100081.97;10421411;28;20099;-77
2021/11/13 18:15:34;;;;;;;57.23;37.40;;;;;;;5.46;81.03;100092.53;10419789;28;20045;-77
2021/11/13 18:20:36;;;;;;;59.70;38.33;;;;;;;5.56;81.22;100083.72;10424766;28;20050;-77
2021/11/13 18:25:40;;;;;;;52.45;35.15;;;;;;;5.55;81.34;100083.75;10427368;28;20049;-76
2021/11/13 18:30:43;;;;;;;56.92;34.83;;;;;;;5.38;81.89;100094.34;10426930;28;20453;-76
2021/11/13 18:35:44;;;;;;;62.17;38.90;;;;;;;5.41;81.96;100101.28;10408829;28;20053;-77
2021/11/13 18:40:49;;;;;;;66.95;39.85;;;;;;;5.42;81.78;100103.88;10427141;28;20053;-77
2021/11/13 18:45:52;;;;;;;53.80;35.53;;;;;;;5.42;81.94;100095.19;10408072;28;20108;-77
2021/11/13 18:50:57;;;;;;;46.47;35.03;;;;;;;5.35;82.50;100110.00;10429301;28;20053;-77
2021/11/13 18:55:59;;;;;;;46.75;33.60;;;;;;;5.26;83.60;100104.88;10410107;28;20508;-76
2021/11/13 19:01:01;;;;;;;54.25;35.40;;;;;;;5.28;83.23;100098.78;10425831;28;20057;-77
2021/11/13 19:06:03;;;;;;;51.28;34.17;;;;;;;5.34;82.80;100104.81;10425660;28;20076;-76
2021/11/13 19:11:06;;;;;;;57.13;34.90;;;;;;;5.18;84.11;100109.31;10423430;28;20095;-77
2021/11/13 19:16:08;;;;;;;55.95;34.22;;;;;;;5.55;82.26;100115.91;10407505;28;20046;-76
2021/11/13 19:21:10;;;;;;;57.65;35.47;;;;;;;5.61;81.98;100107.16;10423026;28;20044;-77
2021/11/13 19:26:12;;;;;;;52.78;34.33;;;;;;;5.55;81.74;100123.72;10425111;28;20142;-77
2021/11/13 19:31:18;;;;;;;51.10;33.75;;;;;;;5.42;83.02;100108.22;10406216;28;20079;-76
2021/11/13 19:36:20;;;;;;;52.80;33.85;;;;;;;5.60;81.70;100109.78;10408682;28;20038;-77
2021/11/13 19:41:23;;;;;;;57.72;33.63;;;;;;;5.75;81.18;100107.00;10406144;28;20049;-78
2021/11/13 19:46:28;;;;;;;53.80;33.00;;;;;;;5.64;81.15;100101.06;10405650;28;20053;-77
2021/11/13 19:51:30;;;;;;;50.88;32.55;;;;;;;5.50;81.96;100115.09;10405951;28;20051;-77
2021/11/13 19:56:32;;;;;;;52.38;34.45;;;;;;;5.73;81.21;100121.81;10423151;28;20499;-78
2021/11/13 20:01:34;;;;;;;51.63;33.45;;;;;;;5.49;82.59;100130.72;10424086;28;20060;-76
2021/11/13 20:06:37;;;;;;;52.20;33.05;;;;;;;5.47;82.84;100128.16;10422422;28;20046;-77
2021/11/13 20:11:39;;;;;;;54.08;34.78;;;;;;;5.42;83.10;100132.56;10405220;28;20467;-77
2021/11/13 20:16:40;;;;;;;57.30;33.45;;;;;;;5.74;81.29;100139.19;10404987;28;20058;-77
2021/11/13 20:21:42;;;;;;;53.50;33.05;;;;;;;5.69;81.71;100147.06;10423201;28;20548;-77
2021/11/13 20:26:44;;;;;;;54.63;33.28;;;;;;;5.73;81.64;100145.28;10404490;28;20053;-77
2021/11/13 20:31:46;;;;;;;58.28;35.42;;;;;;;5.66;82.48;100148.84;10405989;28;20072;-78
2021/11/13 20:36:48;;;;;;;60.50;35.58;;;;;;;5.47;83.26;100158.59;10411754;28;20049;-78
2021/11/13 20:42:04;;;;;;;54.40;33.22;;;;;;;5.26;84.66;100160.47;10413731;28;20041;-78
2021/11/13 20:47:07;;;;;;;55.35;35.22;;;;;;;5.44;84.31;100154.25;10425803;28;20111;-78
2021/11/13 20:52:11;;;;;;;56.45;34.03;;;;;;;5.56;82.81;100158.50;10389822;28;20112;-77
2021/11/13 20:57:13;;;;;;;58.97;35.88;;;;;;;5.55;82.99;100162.84;10402727;28;20041;-76
2021/11/13 21:02:15;;;;;;;56.50;35.08;;;;;;;5.60;82.44;100167.16;10420475;28;20045;-77
2021/11/13 21:07:18;;;;;;;61.60;36.63;;;;;;;5.51;83.04;100175.94;10405328;28;20050;-76
2021/11/13 21:12:21;;;;;;;58.45;35.85;;;;;;;5.62;82.69;100176.69;10404052;28;20041;-77
2021/11/13 21:17:25;;;;;;;57.55;35.67;;;;;;;5.59;82.62;100181.09;10419797;28;20052;-77
2021/11/13 21:22:27;;;;;;;65.88;38.30;;;;;;;5.23;84.92;100180.50;10402635;28;20517;-77
2021/11/13 21:27:28;;;;;;;61.20;36.63;;;;;;;5.20;85.10;100175.31;10422017;28;20049;-75
2021/11/13 21:32:30;;;;;;;54.47;35.65;;;;;;;5.09;86.14;100174.50;10402827;28;20410;-77
2021/11/13 21:37:32;;;;;;;65.53;37.25;;;;;;;5.24;85.12;100174.41;10421833;28;20384;-76
2021/11/13 21:42:50;;;;;;;57.72;35.35;;;;;;;5.17;85.22;100197.03;10419696;28;20116;-76
2021/11/13 21:47:52;;;;;;;55.30;34.60;;;;;;;5.11;85.95;100196.22;10419284;28;20045;-76
2021/11/13 21:52:53;;;;;;;50.65;34.05;;;;;;;5.26;84.79;100201.31;10401060;28;20400;-76
2021/11/13 21:57:56;;;;;;;48.95;34.38;;;;;;;5.03;85.82;100204.94;10406307;28;20120;-77
2021/11/13 22:02:59;;;;;;;53.28;34.67;;;;;;;5.30;85.53;100213.44;10398297;28;20052;-77
2021/11/13 22:08:01;;;;;;;46.00;32.00;;;;;;;5.20;85.01;100214.41;10400509;28;20049;-78
2021/11/13 22:13:03;;;;;;;52.97;34.78;;;;;;;5.41;84.63;100224.69;10383126;28;20048;-77
2021/11/13 22:18:05;;;;;;;54.08;34.53;;;;;;;5.37;84.28;100232.53;10404098;28;20068;-78
2021/11/13 22:23:09;;;;;;;52.15;35.30;;;;;;;5.70;83.09;100219.19;10416119;28;20049;-77
2021/11/13 22:28:12;;;;;;;47.92;31.25;;;;;;;5.49;84.00;100235.03;10415113;28;20045;-77
2021/11/13 22:33:14;;;;;;;46.40;32.35;;;;;;;5.23;85.52;100233.50;10414306;28;20415;-77
2021/11/13 22:38:18;;;;;;;53.03;34.13;;;;;;;5.50;84.90;100222.00;10414601;28;20049;-77
2021/11/13 22:43:21;;;;;;;44.55;32.17;;;;;;;5.57;84.11;100236.69;10396741;28;20041;-77
2021/11/13 22:48:28;;;;;;;53.40;33.03;;;;;;;5.56;84.35;100234.97;10414426;28;20049;-77
2021/11/13 22:53:31;;;;;;;52.97;34.37;;;;;;;5.64;83.26;100241.88;10415682;28;20179;-77
2021/11/13 22:58:33;;;;;;;44.80;32.05;;;;;;;5.31;85.43;100246.44;10414517;28;20288;-77
2021/11/13 23:03:40;;;;;;;53.38;34.50;;;;;;;5.38;85.20;100237.72;10416149;28;20045;-77
2021/11/13 23:08:42;;;;;;;43.30;32.33;;;;;;;5.73;83.89;100244.41;10422382;28;20100;-77